createdAt,value
2023-01-06T00:01:09.289Z,23.50
2023-01-06T00:03:37.230Z,23.60
2023-01-06T00:06:06.036Z,23.60
2023-01-06T00:08:34.512Z,23.70
2023-01-06T00:11:06.083Z,23.70
2023-01-06T00:13:33.804Z,23.80
2023-01-06T00:16:05.261Z,23.90
2023-01-06T00:18:34.296Z,23.90
2023-01-06T00:21:02.199Z,24.00
2023-01-06T00:23:29.937Z,24.10
2023-01-06T00:25:57.673Z,24.10
2023-01-06T00:28:25.334Z,24.20
2023-01-06T00:30:53.730Z,24.30
2023-01-06T00:33:21.501Z,24.30
2023-01-06T00:35:50.522Z,24.50
2023-01-06T00:38:18.233Z,24.50
2023-01-06T00:40:48.204Z,24.50
2023-01-06T00:43:15.878Z,24.60
2023-01-06T00:45:43.561Z,24.70
2023-01-06T00:48:11.291Z,24.70
2023-01-06T00:50:38.952Z,24.80
2023-01-06T00:53:07.964Z,24.90
2023-01-06T00:55:36.557Z,24.90
2023-01-06T00:58:04.219Z,25.00
2023-01-06T01:00:31.895Z,25.10
2023-01-06T01:02:59.997Z,25.20
2023-01-06T01:05:27.766Z,25.20
2023-01-06T01:07:55.456Z,25.30
2023-01-06T01:10:24.480Z,25.40
2023-01-06T01:12:53.953Z,25.40
2023-01-06T01:15:22.397Z,25.60
2023-01-06T01:17:50.078Z,25.60
2023-01-06T01:20:17.894Z,25.60
2023-01-06T01:22:45.573Z,25.80
2023-01-06T01:25:13.385Z,25.90
2023-01-06T01:27:42.432Z,25.90
2023-01-06T01:30:11.004Z,26.00
2023-01-06T01:32:38.709Z,26.10
2023-01-06T01:35:07.130Z,26.20
2023-01-06T01:37:34.819Z,26.30
2023-01-06T01:40:03.857Z,26.30
2023-01-06T01:42:31.611Z,26.40
2023-01-06T01:45:02.709Z,26.50
2023-01-06T01:47:37.928Z,26.60
2023-01-06T01:50:10.448Z,26.70
2023-01-06T01:52:38.153Z,26.80
2023-01-06T01:55:06.601Z,26.90
2023-01-06T01:57:35.925Z,26.90
2023-01-06T02:00:06.312Z,27.00
2023-01-06T02:02:40.673Z,27.20
2023-01-06T02:05:09.110Z,27.20
2023-01-06T02:07:39.160Z,27.40
2023-01-06T02:10:10.293Z,27.40
2023-01-06T02:12:38.003Z,27.50
2023-01-06T02:15:15.637Z,27.60
2023-01-06T02:18:12.849Z,27.80
2023-01-06T02:21:08.789Z,27.80
2023-01-06T02:24:25.586Z,28.00
2023-01-06T02:27:10.745Z,28.10
2023-01-06T02:30:02.069Z,28.20
2023-01-06T02:32:46.992Z,28.30
2023-01-06T02:35:36.513Z,28.40
2023-01-06T02:38:09.528Z,28.50
2023-01-06T02:40:49.023Z,28.60
2023-01-06T02:43:22.220Z,28.70
2023-01-06T02:45:57.338Z,28.80
2023-01-06T02:48:29.355Z,28.90
2023-01-06T02:50:59.255Z,29.00
2023-01-06T02:53:31.830Z,29.10
2023-01-06T02:55:59.645Z,29.20
2023-01-06T02:58:29.189Z,29.20
2023-01-06T03:00:59.097Z,29.30
2023-01-06T03:03:31.580Z,29.30
2023-01-06T03:06:00.329Z,29.50
2023-01-06T03:08:29.940Z,29.60
2023-01-06T03:10:58.083Z,29.60
2023-01-06T03:13:28.760Z,29.70
2023-01-06T03:15:59.004Z,29.80
2023-01-06T03:18:26.788Z,29.80
2023-01-06T03:20:57.488Z,29.90
2023-01-06T03:23:25.178Z,30.00
2023-01-06T03:25:52.939Z,30.10
2023-01-06T03:28:24.101Z,30.20
2023-01-06T03:30:54.228Z,30.20
2023-01-06T03:33:23.925Z,30.30
2023-01-06T03:36:01.567Z,30.30
2023-01-06T03:38:35.595Z,30.40
2023-01-06T03:41:07.705Z,30.50
2023-01-06T03:43:36.605Z,30.60
2023-01-06T03:46:13.329Z,30.60
2023-01-06T03:48:48.672Z,30.60
2023-01-06T03:51:25.173Z,30.60
2023-01-06T03:53:56.584Z,30.70
2023-01-06T03:56:26.266Z,30.80
2023-01-06T03:58:55.915Z,30.70
2023-01-06T04:01:23.888Z,30.80
2023-01-06T04:03:52.987Z,30.80
2023-01-06T04:06:24.050Z,30.80
2023-01-06T04:08:52.557Z,30.80
2023-01-06T04:11:38.548Z,30.80
2023-01-06T04:14:06.666Z,30.80
2023-01-06T04:16:34.605Z,30.90
2023-01-06T04:19:03.909Z,30.90
2023-01-06T04:21:32.942Z,30.80
2023-01-06T04:24:01.181Z,30.80
2023-01-06T04:26:29.340Z,30.90
2023-01-06T04:28:57.096Z,30.80
2023-01-06T04:31:24.867Z,30.80
2023-01-06T04:33:54.833Z,30.80
2023-01-06T04:36:22.685Z,30.80
2023-01-06T04:38:55.559Z,30.80
2023-01-06T04:41:23.313Z,30.80
2023-01-06T04:43:50.986Z,30.70
2023-01-06T04:46:18.639Z,30.70
2023-01-06T04:48:46.407Z,30.70
2023-01-06T04:51:14.084Z,30.60
2023-01-06T04:53:42.055Z,30.60
2023-01-06T04:56:12.467Z,30.70
2023-01-06T04:58:40.183Z,30.70
2023-01-06T05:01:08.711Z,30.60
2023-01-06T05:03:36.889Z,30.60
2023-01-06T05:06:05.236Z,30.50
2023-01-06T05:08:33.050Z,30.50
2023-01-06T05:11:01.327Z,30.50
2023-01-06T05:13:30.454Z,30.50
2023-01-06T05:15:58.135Z,30.50
2023-01-06T05:18:25.896Z,30.50
2023-01-06T05:20:53.778Z,30.40
2023-01-06T05:23:21.529Z,30.40
2023-01-06T05:25:51.305Z,30.40
2023-01-06T05:28:19.085Z,30.30
2023-01-06T05:30:48.377Z,30.30
2023-01-06T05:33:16.103Z,30.20
2023-01-06T05:35:43.766Z,30.20
2023-01-06T05:38:11.441Z,30.20
2023-01-06T05:40:39.113Z,30.10
2023-01-06T05:43:06.815Z,30.20
2023-01-06T05:45:34.556Z,30.10
2023-01-06T05:48:03.603Z,30.10
2023-01-06T05:50:31.322Z,30.00
2023-01-06T05:53:00.060Z,30.00
2023-01-06T05:55:27.758Z,30.00
2023-01-06T05:57:55.435Z,29.90
2023-01-06T06:00:23.242Z,29.90
2023-01-06T06:02:50.923Z,29.90
2023-01-06T06:05:19.921Z,29.90
2023-01-06T06:07:53.733Z,29.80
2023-01-06T06:10:21.495Z,29.80
2023-01-06T06:12:49.161Z,29.70
2023-01-06T06:15:16.882Z,29.70
2023-01-06T06:17:44.557Z,29.70
2023-01-06T06:20:12.351Z,29.70
2023-01-06T06:22:41.342Z,29.60
2023-01-06T06:25:09.794Z,29.60
2023-01-06T06:27:38.316Z,29.60
2023-01-06T06:30:07.303Z,29.60
2023-01-06T06:32:35.018Z,29.60
2023-01-06T06:35:02.709Z,29.60
2023-01-06T06:37:30.383Z,29.50
2023-01-06T06:39:59.389Z,29.50
2023-01-06T06:42:27.089Z,29.50
2023-01-06T06:44:54.759Z,29.50
2023-01-06T06:47:22.493Z,29.40
2023-01-06T06:49:51.084Z,29.30
2023-01-06T06:52:18.777Z,29.30
2023-01-06T06:54:46.442Z,29.20
2023-01-06T06:57:15.451Z,29.20
2023-01-06T06:59:43.166Z,29.20
2023-01-06T07:02:10.861Z,29.20
2023-01-06T07:04:38.678Z,29.20
2023-01-06T07:07:06.395Z,29.10
2023-01-06T07:09:34.107Z,29.10
2023-01-06T07:12:01.765Z,29.10
2023-01-06T07:14:30.800Z,29.00
2023-01-06T07:17:01.045Z,29.00
2023-01-06T07:19:28.739Z,29.00
2023-01-06T07:21:56.429Z,28.90
2023-01-06T07:24:24.180Z,28.80
2023-01-06T07:26:51.831Z,28.90
2023-01-06T07:29:19.528Z,28.80
2023-01-06T07:31:48.592Z,28.80
2023-01-06T07:34:16.298Z,28.80
2023-01-06T07:36:43.967Z,28.70
2023-01-06T07:39:11.624Z,28.70
2023-01-06T07:41:39.307Z,28.60
2023-01-06T07:44:12.322Z,28.60
2023-01-06T07:46:39.995Z,28.60
2023-01-06T07:49:09.048Z,28.50
2023-01-06T07:51:36.743Z,28.50
2023-01-06T07:54:04.515Z,28.50
2023-01-06T07:56:32.280Z,28.40
2023-01-06T07:58:59.920Z,28.40
2023-01-06T08:01:27.707Z,28.30
2023-01-06T08:03:55.477Z,28.30
2023-01-06T08:06:24.503Z,28.40
2023-01-06T08:08:52.192Z,28.30
2023-01-06T08:11:19.938Z,28.20
2023-01-06T08:13:47.676Z,28.30
2023-01-06T08:16:15.417Z,28.20
2023-01-06T08:18:43.385Z,28.10
2023-01-06T08:21:11.571Z,28.20
2023-01-06T08:23:40.621Z,28.10
2023-01-06T08:26:09.211Z,28.10
2023-01-06T08:28:36.959Z,28.10
2023-01-06T08:31:04.923Z,28.00
2023-01-06T08:33:32.650Z,28.00
2023-01-06T08:36:00.466Z,28.00
2023-01-06T08:38:28.293Z,28.00
2023-01-06T08:40:57.719Z,27.90
2023-01-06T08:43:25.849Z,27.90
2023-01-06T08:45:53.614Z,27.80
2023-01-06T08:48:21.357Z,27.90
2023-01-06T08:50:49.068Z,27.80
2023-01-06T08:53:16.723Z,27.80
2023-01-06T08:55:44.408Z,27.80
2023-01-06T08:58:13.410Z,27.80
2023-01-06T09:00:42.010Z,27.70
2023-01-06T09:03:09.733Z,27.70
2023-01-06T09:05:37.384Z,27.70
2023-01-06T09:08:05.484Z,27.60
2023-01-06T09:10:33.153Z,27.60
2023-01-06T09:13:01.588Z,27.60
2023-01-06T09:15:30.650Z,27.60
2023-01-06T09:17:58.358Z,27.50
2023-01-06T09:20:26.097Z,27.50
2023-01-06T09:22:53.789Z,27.60
2023-01-06T09:25:22.739Z,27.50
2023-01-06T09:27:50.387Z,27.50
2023-01-06T09:30:18.506Z,27.50
2023-01-06T09:32:47.547Z,27.50
2023-01-06T09:35:15.393Z,27.40
2023-01-06T09:37:43.096Z,27.40
2023-01-06T09:40:12.470Z,27.30
2023-01-06T09:42:49.246Z,27.30
2023-01-06T09:45:17.826Z,27.30
2023-01-06T09:47:48.834Z,27.30
2023-01-06T09:50:19.811Z,27.30
2023-01-06T09:52:49.875Z,27.30
2023-01-06T09:55:19.381Z,27.20
2023-01-06T09:57:49.465Z,27.20
2023-01-06T10:00:23.346Z,27.10
2023-01-06T10:02:52.751Z,27.10
2023-01-06T10:05:21.544Z,27.10
2023-01-06T10:07:52.797Z,27.10
2023-01-06T10:10:23.483Z,27.10
2023-01-06T10:12:57.752Z,27.00
2023-01-06T10:15:29.833Z,27.10
2023-01-06T10:18:05.141Z,27.00
2023-01-06T10:20:51.045Z,27.00
2023-01-06T10:23:40.666Z,27.00
2023-01-06T10:26:12.563Z,27.00
2023-01-06T10:28:41.801Z,27.00
2023-01-06T10:31:10.420Z,26.90
2023-01-06T10:33:41.610Z,26.90
2023-01-06T10:36:12.014Z,26.90
2023-01-06T10:38:41.320Z,26.80
2023-01-06T10:41:14.121Z,26.80
2023-01-06T10:43:41.855Z,26.80
2023-01-06T10:46:09.677Z,26.80
2023-01-06T10:48:38.696Z,26.80
2023-01-06T10:51:19.311Z,26.70
2023-01-06T10:53:47.044Z,26.70
2023-01-06T10:56:14.749Z,26.70
2023-01-06T10:58:43.964Z,26.70
2023-01-06T11:01:12.557Z,26.70
2023-01-06T11:03:42.668Z,26.70
2023-01-06T11:06:16.605Z,26.60
2023-01-06T11:08:44.349Z,26.60
2023-01-06T11:11:27.735Z,26.60
2023-01-06T11:13:57.493Z,26.60
2023-01-06T11:16:26.894Z,26.50
2023-01-06T11:18:56.583Z,26.50
2023-01-06T11:21:24.436Z,26.50
2023-01-06T11:23:52.187Z,26.50
2023-01-06T11:26:22.086Z,26.40
2023-01-06T11:28:50.476Z,26.40
2023-01-06T11:31:20.705Z,26.40
2023-01-06T11:33:52.790Z,26.40
2023-01-06T11:36:22.458Z,26.40
2023-01-06T11:38:51.874Z,26.50
2023-01-06T11:41:24.245Z,26.50
2023-01-06T11:43:53.065Z,26.40
2023-01-06T11:46:22.222Z,26.50
2023-01-06T11:48:50.954Z,26.50
2023-01-06T11:51:31.040Z,26.50
2023-01-06T11:53:58.770Z,26.60
2023-01-06T11:56:26.437Z,26.60
2023-01-06T11:58:58.229Z,26.70
2023-01-06T12:01:28.616Z,26.80
2023-01-06T12:04:01.952Z,26.80
2023-01-06T12:06:33.080Z,26.90
2023-01-06T12:09:03.022Z,27.10
2023-01-06T12:11:35.158Z,27.20
2023-01-06T12:14:16.247Z,27.40
2023-01-06T12:16:53.855Z,27.50
2023-01-06T12:19:23.539Z,27.60
2023-01-06T12:21:52.605Z,27.70
2023-01-06T12:24:20.279Z,27.80
2023-01-06T12:26:47.956Z,27.90
2023-01-06T12:29:17.055Z,28.00
2023-01-06T12:31:46.350Z,28.10
2023-01-06T12:34:17.111Z,28.20
2023-01-06T12:36:47.467Z,28.30
2023-01-06T12:39:20.007Z,28.40
2023-01-06T12:41:50.535Z,28.50
2023-01-06T12:44:21.771Z,28.60
2023-01-06T12:46:53.568Z,28.70
2023-01-06T12:49:24.247Z,28.90
2023-01-06T12:51:53.022Z,29.00
2023-01-06T12:54:24.346Z,28.80
2023-01-06T12:57:00.299Z,28.90
2023-01-06T12:59:30.807Z,29.50
2023-01-06T13:02:00.864Z,28.90
2023-01-06T13:04:41.697Z,28.40
2023-01-06T13:07:12.423Z,28.30
2023-01-06T13:09:50.027Z,28.30
2023-01-06T13:12:26.989Z,28.30
2023-01-06T13:14:57.490Z,28.50
2023-01-06T13:17:28.394Z,28.50
2023-01-06T13:19:56.897Z,28.70
2023-01-06T13:22:27.284Z,28.50
2023-01-06T13:25:08.606Z,28.30
2023-01-06T13:27:55.734Z,28.10
2023-01-06T13:30:51.633Z,27.80
2023-01-06T13:33:30.330Z,27.60
2023-01-06T13:36:11.320Z,27.50
2023-01-06T13:38:50.030Z,27.30
2023-01-06T13:41:20.521Z,27.40
2023-01-06T13:43:49.056Z,27.60
2023-01-06T13:46:18.852Z,27.70
2023-01-06T13:48:49.312Z,27.60
2023-01-06T13:51:18.972Z,27.60
2023-01-06T13:53:47.067Z,27.40
2023-01-06T13:56:28.968Z,27.30
2023-01-06T13:59:19.365Z,27.20
2023-01-06T14:01:47.316Z,27.10
2023-01-06T14:04:46.819Z,27.00
2023-01-06T14:07:14.922Z,26.90
2023-01-06T14:09:47.929Z,26.90
2023-01-06T14:12:18.706Z,26.90
2023-01-06T14:14:46.667Z,26.90
2023-01-06T14:17:28.495Z,26.80
2023-01-06T14:19:56.323Z,26.70
2023-01-06T14:22:25.289Z,26.70
2023-01-06T14:24:54.123Z,26.70
2023-01-06T14:27:51.647Z,26.60
2023-01-06T14:30:24.272Z,26.50
2023-01-06T14:33:23.705Z,26.50
2023-01-06T14:35:52.081Z,26.50
2023-01-06T14:38:25.430Z,26.50
2023-01-06T14:40:56.742Z,26.50
2023-01-06T14:43:48.272Z,26.50
2023-01-06T14:46:21.275Z,26.50
2023-01-06T14:48:52.905Z,26.50
2023-01-06T14:51:21.527Z,26.50
2023-01-06T14:53:52.333Z,26.40
2023-01-06T14:56:20.816Z,26.40
2023-01-06T14:58:48.512Z,26.30
2023-01-06T15:01:24.475Z,26.30
2023-01-06T15:03:56.206Z,26.30
2023-01-06T15:06:25.049Z,26.30
2023-01-06T15:08:52.809Z,26.30
2023-01-06T15:11:26.473Z,26.30
2023-01-06T15:13:54.263Z,26.30
2023-01-06T15:16:29.079Z,26.30
2023-01-06T15:18:56.944Z,26.30
2023-01-06T15:21:25.452Z,26.40
2023-01-06T15:23:53.843Z,26.40
2023-01-06T15:26:23.954Z,26.40
2023-01-06T15:29:00.814Z,26.50
2023-01-06T15:31:31.010Z,26.50
2023-01-06T15:33:58.703Z,26.50
2023-01-06T15:36:26.406Z,26.60
2023-01-06T15:38:54.603Z,26.50
2023-01-06T15:41:34.495Z,26.60
2023-01-06T15:44:02.474Z,26.60
2023-01-06T15:46:39.478Z,26.60
2023-01-06T15:49:07.146Z,26.70
2023-01-06T15:51:34.873Z,26.60
2023-01-06T15:54:02.725Z,26.60
2023-01-06T15:56:30.499Z,26.60
2023-01-06T15:58:58.825Z,26.80
2023-01-06T16:01:26.782Z,26.70
2023-01-06T16:03:57.053Z,26.70
2023-01-06T16:06:28.881Z,26.80
2023-01-06T16:09:17.888Z,26.80
2023-01-06T16:11:58.050Z,26.70
2023-01-06T16:14:27.900Z,26.70
2023-01-06T16:17:01.308Z,26.70
2023-01-06T16:19:30.432Z,26.70
2023-01-06T16:21:58.183Z,26.70
2023-01-06T16:24:27.250Z,26.60
2023-01-06T16:26:56.163Z,26.60
2023-01-06T16:29:26.605Z,26.60
2023-01-06T16:31:54.346Z,26.60
2023-01-06T16:34:26.773Z,26.50
2023-01-06T16:36:57.246Z,26.60
2023-01-06T16:39:25.189Z,26.60
2023-01-06T16:42:38.808Z,26.50
2023-01-06T16:45:22.666Z,26.50
2023-01-06T16:47:50.507Z,26.50
2023-01-06T16:50:20.689Z,26.50
2023-01-06T16:52:52.187Z,26.40
2023-01-06T16:55:20.473Z,26.40
2023-01-06T16:57:49.872Z,26.40
2023-01-06T17:00:19.240Z,26.40
2023-01-06T17:02:47.028Z,26.40
2023-01-06T17:05:22.621Z,26.50
2023-01-06T17:07:52.147Z,26.50
2023-01-06T17:10:21.219Z,26.40
2023-01-06T17:13:19.994Z,26.40
2023-01-06T17:15:47.861Z,26.40
2023-01-06T17:18:24.949Z,26.30
2023-01-06T17:20:53.857Z,26.30
2023-01-06T17:23:23.802Z,26.30
2023-01-06T17:25:51.542Z,26.20
2023-01-06T17:28:24.187Z,26.30
2023-01-06T17:30:51.893Z,26.20
2023-01-06T17:33:20.683Z,26.30
2023-01-06T17:35:56.630Z,26.20
2023-01-06T17:38:25.865Z,26.20
2023-01-06T17:40:54.751Z,26.30
2023-01-06T17:43:26.306Z,26.30
2023-01-06T17:45:54.050Z,26.30
2023-01-06T17:48:21.775Z,26.30
2023-01-06T17:50:50.521Z,26.20
2023-01-06T17:53:36.681Z,26.20
2023-01-06T17:56:06.743Z,26.10
2023-01-06T17:58:36.584Z,25.90
2023-01-06T18:01:04.502Z,25.90
2023-01-06T18:03:33.433Z,25.70
2023-01-06T18:06:07.850Z,25.50
2023-01-06T18:08:36.991Z,25.50
2023-01-06T18:11:26.643Z,25.40
2023-01-06T18:13:54.314Z,25.40
2023-01-06T18:16:28.121Z,25.40
2023-01-06T18:19:14.649Z,25.40
2023-01-06T18:21:45.039Z,25.40
2023-01-06T18:24:16.161Z,25.30
2023-01-06T18:26:48.534Z,25.20
2023-01-06T18:29:17.827Z,25.20
2023-01-06T18:31:45.854Z,25.10
2023-01-06T18:34:28.629Z,25.10
2023-01-06T18:36:56.975Z,25.10
2023-01-06T18:39:25.923Z,25.00
2023-01-06T18:42:05.163Z,25.00
2023-01-06T18:44:34.436Z,24.90
2023-01-06T18:47:02.105Z,24.90
2023-01-06T18:49:33.026Z,24.80
2023-01-06T18:52:02.797Z,24.80
2023-01-06T18:54:30.490Z,24.80
2023-01-06T18:56:59.465Z,24.80
2023-01-06T18:59:28.651Z,24.70
2023-01-06T19:01:56.379Z,24.70
2023-01-06T19:04:28.985Z,24.60
2023-01-06T19:06:57.588Z,24.60
2023-01-06T19:09:29.464Z,24.50
2023-01-06T19:12:01.928Z,24.50
2023-01-06T19:14:30.913Z,24.50
2023-01-06T19:16:58.650Z,24.50
2023-01-06T19:19:28.710Z,24.40
2023-01-06T19:22:02.892Z,24.40
2023-01-06T19:24:49.712Z,24.40
2023-01-06T19:27:39.085Z,24.40
2023-01-06T19:30:27.401Z,24.30
2023-01-06T19:32:55.177Z,24.30
2023-01-06T19:35:24.525Z,24.30
2023-01-06T19:37:53.578Z,24.20
2023-01-06T19:40:24.346Z,24.20
2023-01-06T19:42:53.696Z,24.20
2023-01-06T19:45:29.738Z,24.20
2023-01-06T19:47:58.880Z,24.10
2023-01-06T19:50:26.550Z,24.10
2023-01-06T19:52:57.133Z,24.00
2023-01-06T19:55:25.779Z,24.00
2023-01-06T19:57:55.961Z,24.00
2023-01-06T20:00:25.987Z,24.00
2023-01-06T20:02:56.507Z,24.00
2023-01-06T20:05:24.340Z,24.00
2023-01-06T20:07:52.005Z,23.90
2023-01-06T20:10:20.545Z,23.90
2023-01-06T20:12:48.568Z,23.90
2023-01-06T20:15:17.765Z,23.80
2023-01-06T20:17:45.461Z,23.80
2023-01-06T20:20:13.158Z,23.80
2023-01-06T20:22:40.817Z,23.80
2023-01-06T20:25:09.137Z,23.70
2023-01-06T20:27:37.177Z,23.80
2023-01-06T20:30:05.659Z,23.70
2023-01-06T20:32:34.680Z,23.70
2023-01-06T20:35:02.470Z,23.70
2023-01-06T20:37:31.793Z,23.60
2023-01-06T20:39:59.486Z,23.60
2023-01-06T20:42:27.200Z,23.60
2023-01-06T20:44:54.847Z,23.60
2023-01-06T20:47:22.660Z,23.60
2023-01-06T20:49:52.267Z,23.60
2023-01-06T20:52:19.959Z,23.60
2023-01-06T20:54:47.616Z,23.50
2023-01-06T20:57:15.296Z,23.50
2023-01-06T20:59:42.970Z,23.50
2023-01-06T21:02:10.809Z,23.50
2023-01-06T21:04:38.585Z,23.40
2023-01-06T21:07:07.647Z,23.50
2023-01-06T21:09:35.313Z,23.40
2023-01-06T21:12:02.941Z,23.40
2023-01-06T21:14:32.080Z,23.40
2023-01-06T21:16:59.798Z,23.40
2023-01-06T21:19:27.590Z,23.40
2023-01-06T21:21:55.242Z,23.30
2023-01-06T21:24:25.262Z,23.40
2023-01-06T21:26:53.013Z,23.30
2023-01-06T21:29:20.903Z,23.30
2023-01-06T21:31:48.522Z,23.30
2023-01-06T21:34:16.200Z,23.30
2023-01-06T21:36:43.896Z,23.20
2023-01-06T21:39:11.847Z,23.20
2023-01-06T21:41:58.361Z,23.20
2023-01-06T21:44:26.002Z,23.20
2023-01-06T21:46:53.668Z,23.20
2023-01-06T21:49:21.382Z,23.20
2023-01-06T21:51:51.126Z,23.20
2023-01-06T21:54:18.839Z,23.10
2023-01-06T21:56:47.811Z,23.10
2023-01-06T21:59:15.520Z,23.10
2023-01-06T22:01:43.268Z,23.10
2023-01-06T22:04:11.022Z,23.10
2023-01-06T22:06:40.303Z,23.00
2023-01-06T22:09:08.155Z,23.00
2023-01-06T22:11:35.912Z,23.00
2023-01-06T22:14:05.296Z,23.00
2023-01-06T22:16:33.058Z,23.00
2023-01-06T22:19:00.733Z,23.00
2023-01-06T22:21:28.661Z,22.90
2023-01-06T22:23:56.411Z,22.90
2023-01-06T22:26:24.105Z,22.90
2023-01-06T22:28:51.995Z,22.90
2023-01-06T22:31:21.016Z,22.90
2023-01-06T22:33:48.683Z,22.90
2023-01-06T22:36:16.352Z,22.90
2023-01-06T22:38:44.067Z,22.90
2023-01-06T22:41:12.503Z,22.80
2023-01-06T22:43:40.302Z,22.80
2023-01-06T22:46:07.975Z,22.80
2023-01-06T22:48:37.015Z,22.80
2023-01-06T22:51:05.857Z,22.80
2023-01-06T22:53:33.813Z,22.80
2023-01-06T22:56:02.234Z,22.70
2023-01-06T22:58:30.057Z,22.70
2023-01-06T23:00:57.806Z,22.70
2023-01-06T23:03:25.498Z,22.70
2023-01-06T23:05:58.155Z,22.70
2023-01-06T23:08:26.697Z,22.70
2023-01-06T23:10:59.579Z,22.70
2023-01-06T23:13:27.246Z,22.70
2023-01-06T23:16:02.169Z,22.60
2023-01-06T23:18:30.996Z,22.60
2023-01-06T23:21:01.346Z,22.60
2023-01-06T23:23:29.108Z,22.60
2023-01-06T23:26:02.131Z,22.60
2023-01-06T23:28:29.800Z,22.60
2023-01-06T23:31:02.783Z,22.50
2023-01-06T23:33:30.513Z,22.50
2023-01-06T23:36:02.687Z,22.50
2023-01-06T23:38:30.625Z,22.50
2023-01-06T23:41:02.713Z,22.50
2023-01-06T23:43:31.496Z,22.50
2023-01-06T23:46:02.537Z,22.40
2023-01-06T23:48:31.153Z,22.40
2023-01-06T23:50:58.870Z,22.40
2023-01-06T23:53:28.358Z,22.40
2023-01-06T23:55:57.110Z,22.40
2023-01-06T23:58:24.935Z,22.40
